Crossville Memorial Whitson Field
KCSV : rendu visible

Aérodrome :











RETROUVEZ-NOUS SUR...

 
LOGIN :

S'inscrire | Disclaimer

   EN    FR    IT 

 









Légende :    VFR   VFR Marginal   IFR   IFR Intensif   IFR Très Intensif
Visi : 
Plafond : 
>= 8 km
>= 3000ft
5 à 8 km
1000 à 3000 ft
1500m à 5 km
500 à 1000 ft
800 à 1500m
200 à 500 ft
< 800m
< 200 ft
Symboles :   Orages  Brouillard  Fortes neiges  Fortes précipitations  Vent > 20 kt






- Altitude de l'aérodrome : 1881 ft


KCSV - Crossville Memorial Whitson Field

DERNIER METAR :
  • 162253Z AUTO 02006KT 10SM CLR 08/M03 A3011 RMK AO2 SLP202 T00781033

METARs EXPIRÉS :
  • 162153Z AUTO 01006KT 10SM CLR 10/M02 A3009 RMK AO2 SLP195 T01001022
  • 162053Z AUTO VRB05KT 10SM CLR 12/M05 A3009 RMK AO2 SLP193 T01171050 56014

TAF KCSV
Valide du 17 à 00h jusqu'au 18 à 00h UTC


162320Z 1700/1724 02006KT P6SM SKC
FM170400 00000KT P6SM SKC
FM171900 24005KT P6SM FEW250



MET'MAP, la Météo Aéronautique d'un coup d'oeil ! - Copyright ORBIFLY Décembre 2007 - Disclaimer

ORBIFLY MET'MAP TEAM :

Programmation & Développement : Alexandra Zaïnal
Conception & Développement : Baudouin d'Aumeries
Co-Programmation & Développement : Marc-Olivier Méhu
Soutien technique & logistique : Manuel Goepfert

Contact : metmap@orbifly.com




SOURCES & CREDITS :

   NOAA       Earth
Advisory